Terminal Aerodrome Forecast
Issued by NWS

Home | Current Version | Previous Version | Text Only | Print | Product List | Glossary On
Versions: 1 2 3 4 5 6 7 8 9 10 11 12 13 14 15 16 17 18 19 20 21 22 23 24 25 26 27 28 29 30 31 32 33 34 35 36 37 38 39 40 41 42 43 44 45 46 47 48
000
FTUS43 KGRB 251732
TAFRHI
TAF
KRHI 251732Z 2518/2618 30012G21KT 6SM -SHSN OVC025
      TEMPO 2518/2519 3SM -SHSN
     FM251900 30012G21KT P6SM BKN025
     FM252100 30011G17KT P6SM SCT250
     FM260400 24006KT P6SM BKN045
     FM260900 23007KT P6SM OVC030
     FM261100 22006KT P6SM VCSH OVC015=

USA.gov is the U.S. government's official web portal to all federal, state and local government web resources and services.